sensor_id;sensor_type;location;lat;lon;timestamp;temperature;humidity
77052;SHT30;65980;44.898;8.602;2023-04-01T00:01:31;10.08;82.04
77052;SHT30;65980;44.898;8.602;2023-04-01T00:04:39;10.27;80.47
77052;SHT30;65980;44.898;8.602;2023-04-01T00:07:44;9.89;82.36
77052;SHT30;65980;44.898;8.602;2023-04-01T00:10:50;9.58;83.67
77052;SHT30;65980;44.898;8.602;2023-04-01T00:13:54;9.90;82.52
77052;SHT30;65980;44.898;8.602;2023-04-01T00:16:58;9.73;83.02
77052;SHT30;65980;44.898;8.602;2023-04-01T00:20:04;10.14;82.16
77052;SHT30;65980;44.898;8.602;2023-04-01T00:23:09;10.34;81.64
77052;SHT30;65980;44.898;8.602;2023-04-01T00:26:14;10.27;80.67
77052;SHT30;65980;44.898;8.602;2023-04-01T00:29:18;10.21;80.63
77052;SHT30;65980;44.898;8.602;2023-04-01T00:32:22;10.10;81.67
77052;SHT30;65980;44.898;8.602;2023-04-01T00:35:26;10.15;81.28
77052;SHT30;65980;44.898;8.602;2023-04-01T00:38:31;10.03;80.69
77052;SHT30;65980;44.898;8.602;2023-04-01T00:41:36;10.20;80.38
77052;SHT30;65980;44.898;8.602;2023-04-01T00:44:40;10.03;80.83
77052;SHT30;65980;44.898;8.602;2023-04-01T00:47:45;10.00;80.56
77052;SHT30;65980;44.898;8.602;2023-04-01T00:51:01;9.65;81.62
77052;SHT30;65980;44.898;8.602;2023-04-01T00:54:11;9.58;82.09
77052;SHT30;65980;44.898;8.602;2023-04-01T00:57:19;9.14;84.01
77052;SHT30;65980;44.898;8.602;2023-04-01T01:00:24;9.20;84.13
77052;SHT30;65980;44.898;8.602;2023-04-01T01:03:31;9.38;83.24
77052;SHT30;65980;44.898;8.602;2023-04-01T01:06:43;9.38;82.21
77052;SHT30;65980;44.898;8.602;2023-04-01T01:09:57;9.58;81.57
77052;SHT30;65980;44.898;8.602;2023-04-01T01:13:16;9.46;81.46
77052;SHT30;65980;44.898;8.602;2023-04-01T01:16:27;9.38;81.16
77052;SHT30;65980;44.898;8.602;2023-04-01T01:19:55;9.62;80.56
77052;SHT30;65980;44.898;8.602;2023-04-01T01:23:16;9.56;79.92
77052;SHT30;65980;44.898;8.602;2023-04-01T01:32:59;9.73;78.13
77052;SHT30;65980;44.898;8.602;2023-04-01T01:36:08;9.83;77.95
77052;SHT30;65980;44.898;8.602;2023-04-01T01:39:15;9.82;77.95
77052;SHT30;65980;44.898;8.602;2023-04-01T01:42:20;9.69;78.24
77052;SHT30;65980;44.898;8.602;2023-04-01T01:45:26;9.69;78.21
77052;SHT30;65980;44.898;8.602;2023-04-01T01:48:32;9.84;77.12
77052;SHT30;65980;44.898;8.602;2023-04-01T01:51:36;9.59;77.88
77052;SHT30;65980;44.898;8.602;2023-04-01T01:54:47;9.55;78.45
77052;SHT30;65980;44.898;8.602;2023-04-01T01:57:52;9.28;78.81
77052;SHT30;65980;44.898;8.602;2023-04-01T02:01:01;9.55;77.74
77052;SHT30;65980;44.898;8.602;2023-04-01T02:04:06;9.42;77.42
77052;SHT30;65980;44.898;8.602;2023-04-01T02:07:15;9.41;78.03
77052;SHT30;65980;44.898;8.602;2023-04-01T02:10:20;9.34;77.95
77052;SHT30;65980;44.898;8.602;2023-04-01T02:13:31;8.99;79.21
77052;SHT30;65980;44.898;8.602;2023-04-01T02:19:51;9.32;77.18
77052;SHT30;65980;44.898;8.602;2023-04-01T02:22:58;9.18;77.66
77052;SHT30;65980;44.898;8.602;2023-04-01T02:26:05;8.99;78.60
77052;SHT30;65980;44.898;8.602;2023-04-01T02:29:11;8.91;79.07
77052;SHT30;65980;44.898;8.602;2023-04-01T02:32:17;9.14;77.70
77052;SHT30;65980;44.898;8.602;2023-04-01T02:35:22;9.32;77.27
77052;SHT30;65980;44.898;8.602;2023-04-01T02:38:28;9.43;76.62
77052;SHT30;65980;44.898;8.602;2023-04-01T02:41:38;9.03;78.01
77052;SHT30;65980;44.898;8.602;2023-04-01T02:44:43;9.30;76.85
77052;SHT30;65980;44.898;8.602;2023-04-01T02:47:49;9.32;76.47
77052;SHT30;65980;44.898;8.602;2023-04-01T02:50:56;8.97;77.08
77052;SHT30;65980;44.898;8.602;2023-04-01T02:54:03;9.20;76.35
77052;SHT30;65980;44.898;8.602;2023-04-01T02:57:07;8.97;77.02
77052;SHT30;65980;44.898;8.602;2023-04-01T03:00:12;8.79;77.52
77052;SHT30;65980;44.898;8.602;2023-04-01T03:03:16;8.77;77.48
77052;SHT30;65980;44.898;8.602;2023-04-01T03:06:23;8.69;77.79
77052;SHT30;65980;44.898;8.602;2023-04-01T03:09:30;8.66;77.45
77052;SHT30;65980;44.898;8.602;2023-04-01T03:12:37;8.53;78.24
77052;SHT30;65980;44.898;8.602;2023-04-01T03:15:42;8.73;77.40
77052;SHT30;65980;44.898;8.602;2023-04-01T03:18:46;8.88;77.01
77052;SHT30;65980;44.898;8.602;2023-04-01T03:21:50;9.03;76.13
77052;SHT30;65980;44.898;8.602;2023-04-01T03:24:54;8.24;78.84
77052;SHT30;65980;44.898;8.602;2023-04-01T03:27:58;8.27;79.48
77052;SHT30;65980;44.898;8.602;2023-04-01T03:31:04;8.67;77.44
77052;SHT30;65980;44.898;8.602;2023-04-01T03:34:15;8.73;77.06
77052;SHT30;65980;44.898;8.602;2023-04-01T03:37:19;8.90;76.34
77052;SHT30;65980;44.898;8.602;2023-04-01T03:40:24;8.14;79.24
77052;SHT30;65980;44.898;8.602;2023-04-01T03:43:30;8.25;78.87
77052;SHT30;65980;44.898;8.602;2023-04-01T03:46:34;8.42;77.46
77052;SHT30;65980;44.898;8.602;2023-04-01T03:49:38;8.39;77.50
77052;SHT30;65980;44.898;8.602;2023-04-01T03:52:42;8.34;78.11
77052;SHT30;65980;44.898;8.602;2023-04-01T03:55:46;8.27;78.36
77052;SHT30;65980;44.898;8.602;2023-04-01T03:58:50;7.96;78.72
77052;SHT30;65980;44.898;8.602;2023-04-01T04:01:54;7.76;79.72
77052;SHT30;65980;44.898;8.602;2023-04-01T04:04:58;8.07;78.72
77052;SHT30;65980;44.898;8.602;2023-04-01T04:08:04;8.22;77.91
77052;SHT30;65980;44.898;8.602;2023-04-01T04:11:09;8.38;76.95
77052;SHT30;65980;44.898;8.602;2023-04-01T04:14:17;8.30;76.31
77052;SHT30;65980;44.898;8.602;2023-04-01T04:17:23;8.17;77.86
77052;SHT30;65980;44.898;8.602;2023-04-01T04:20:27;8.14;77.58
77052;SHT30;65980;44.898;8.602;2023-04-01T04:23:31;8.01;76.83
77052;SHT30;65980;44.898;8.602;2023-04-01T04:26:40;7.62;77.94
77052;SHT30;65980;44.898;8.602;2023-04-01T04:29:44;7.44;78.74
77052;SHT30;65980;44.898;8.602;2023-04-01T04:32:50;7.66;76.65
77052;SHT30;65980;44.898;8.602;2023-04-01T04:35:57;7.87;76.86
77052;SHT30;65980;44.898;8.602;2023-04-01T04:39:02;7.98;74.03
77052;SHT30;65980;44.898;8.602;2023-04-01T04:42:09;8.17;72.36
77052;SHT30;65980;44.898;8.602;2023-04-01T04:45:14;8.07;72.62
77052;SHT30;65980;44.898;8.602;2023-04-01T04:48:27;7.65;74.32
77052;SHT30;65980;44.898;8.602;2023-04-01T04:51:36;7.72;74.17
77052;SHT30;65980;44.898;8.602;2023-04-01T04:54:44;7.83;73.67
77052;SHT30;65980;44.898;8.602;2023-04-01T04:57:48;7.93;73.65
77052;SHT30;65980;44.898;8.602;2023-04-01T05:00:54;7.82;72.68
77052;SHT30;65980;44.898;8.602;2023-04-01T05:04:06;8.00;72.89
77052;SHT30;65980;44.898;8.602;2023-04-01T05:07:11;8.21;70.24
77052;SHT30;65980;44.898;8.602;2023-04-01T05:10:24;8.10;69.69
77052;SHT30;65980;44.898;8.602;2023-04-01T05:13:29;7.83;69.26
77052;SHT30;65980;44.898;8.602;2023-04-01T05:16:40;7.98;69.29
77052;SHT30;65980;44.898;8.602;2023-04-01T05:19:48;8.20;68.17
77052;SHT30;65980;44.898;8.602;2023-04-01T05:22:58;7.98;68.64
77052;SHT30;65980;44.898;8.602;2023-04-01T05:26:05;7.77;68.43
77052;SHT30;65980;44.898;8.602;2023-04-01T05:29:15;7.87;67.16
77052;SHT30;65980;44.898;8.602;2023-04-01T05:32:22;8.34;66.10
77052;SHT30;65980;44.898;8.602;2023-04-01T05:35:27;8.34;65.36
77052;SHT30;65980;44.898;8.602;2023-04-01T05:38:34;8.53;65.42
77052;SHT30;65980;44.898;8.602;2023-04-01T05:41:39;8.37;64.95
77052;SHT30;65980;44.898;8.602;2023-04-01T05:44:44;8.59;64.39
77052;SHT30;65980;44.898;8.602;2023-04-01T05:48:10;8.88;63.65
77052;SHT30;65980;44.898;8.602;2023-04-01T05:51:48;8.73;65.15
77052;SHT30;65980;44.898;8.602;2023-04-01T05:54:56;9.05;64.52
77052;SHT30;65980;44.898;8.602;2023-04-01T05:58:03;8.93;62.99
77052;SHT30;65980;44.898;8.602;2023-04-01T06:01:10;8.80;63.80
77052;SHT30;65980;44.898;8.602;2023-04-01T06:04:16;9.34;61.93
77052;SHT30;65980;44.898;8.602;2023-04-01T06:07:23;9.28;62.13
77052;SHT30;65980;44.898;8.602;2023-04-01T06:20:24;9.52;64.59
77052;SHT30;65980;44.898;8.602;2023-04-01T06:23:37;9.66;61.54
77052;SHT30;65980;44.898;8.602;2023-04-01T06:36:57;11.01;59.72
77052;SHT30;65980;44.898;8.602;2023-04-01T06:40:31;11.18;59.45
77052;SHT30;65980;44.898;8.602;2023-04-01T06:43:37;11.24;61.31
77052;SHT30;65980;44.898;8.602;2023-04-01T06:47:01;11.52;58.58
77052;SHT30;65980;44.898;8.602;2023-04-01T06:57:52;12.00;56.71
77052;SHT30;65980;44.898;8.602;2023-04-01T07:00:57;12.24;55.09
77052;SHT30;65980;44.898;8.602;2023-04-01T07:04:05;12.48;53.82
77052;SHT30;65980;44.898;8.602;2023-04-01T07:10:47;12.38;51.33
77052;SHT30;65980;44.898;8.602;2023-04-01T07:14:55;12.69;50.02
77052;SHT30;65980;44.898;8.602;2023-04-01T07:18:05;12.90;49.08
77052;SHT30;65980;44.898;8.602;2023-04-01T07:21:22;12.89;46.98
77052;SHT30;65980;44.898;8.602;2023-04-01T07:24:32;12.90;47.17
77052;SHT30;65980;44.898;8.602;2023-04-01T07:27:44;12.90;48.83
77052;SHT30;65980;44.898;8.602;2023-04-01T07:34:23;13.10;48.96
77052;SHT30;65980;44.898;8.602;2023-04-01T07:37:45;13.48;45.81
77052;SHT30;65980;44.898;8.602;2023-04-01T07:44:32;14.20;45.97
77052;SHT30;65980;44.898;8.602;2023-04-01T07:54:29;14.61;43.66
77052;SHT30;65980;44.898;8.602;2023-04-01T07:57:49;14.52;42.71
77052;SHT30;65980;44.898;8.602;2023-04-01T08:01:10;14.44;42.42
77052;SHT30;65980;44.898;8.602;2023-04-01T08:11:24;15.24;39.97
77052;SHT30;65980;44.898;8.602;2023-04-01T08:18:54;15.41;44.39
77052;SHT30;65980;44.898;8.602;2023-04-01T08:22:03;15.78;47.34
77052;SHT30;65980;44.898;8.602;2023-04-01T08:57:13;17.08;37.96
77052;SHT30;65980;44.898;8.602;2023-04-01T09:50:17;24.74;25.94
77052;SHT30;65980;44.898;8.602;2023-04-01T10:15:09;20.20;31.46
77052;SHT30;65980;44.898;8.602;2023-04-01T10:28:21;19.47;30.51
77052;SHT30;65980;44.898;8.602;2023-04-01T10:45:58;20.01;30.96
77052;SHT30;65980;44.898;8.602;2023-04-01T11:00:10;21.15;29.06
77052;SHT30;65980;44.898;8.602;2023-04-01T11:28:35;22.61;25.52
77052;SHT30;65980;44.898;8.602;2023-04-01T11:46:33;20.97;24.92
77052;SHT30;65980;44.898;8.602;2023-04-01T11:50:18;21.15;24.99
77052;SHT30;65980;44.898;8.602;2023-04-01T12:40:38;22.48;23.64
77052;SHT30;65980;44.898;8.602;2023-04-01T13:22:35;22.47;19.67
77052;SHT30;65980;44.898;8.602;2023-04-01T13:47:56;23.07;20.39
77052;SHT30;65980;44.898;8.602;2023-04-01T13:51:33;23.38;20.05
77052;SHT30;65980;44.898;8.602;2023-04-01T13:55:07;23.48;18.91
77052;SHT30;65980;44.898;8.602;2023-04-01T14:06:13;23.03;18.76
77052;SHT30;65980;44.898;8.602;2023-04-01T14:38:01;23.46;19.07
77052;SHT30;65980;44.898;8.602;2023-04-01T14:51:16;23.44;18.79
77052;SHT30;65980;44.898;8.602;2023-04-01T14:54:51;23.21;19.00
77052;SHT30;65980;44.898;8.602;2023-04-01T15:23:02;23.36;17.92
77052;SHT30;65980;44.898;8.602;2023-04-01T15:33:45;23.69;19.96
77052;SHT30;65980;44.898;8.602;2023-04-01T15:36:57;23.64;18.92
77052;SHT30;65980;44.898;8.602;2023-04-01T16:16:25;22.27;22.79
77052;SHT30;65980;44.898;8.602;2023-04-01T16:23:52;22.38;22.58
77052;SHT30;65980;44.898;8.602;2023-04-01T16:31:03;22.41;19.83
77052;SHT30;65980;44.898;8.602;2023-04-01T16:52:40;20.82;29.20
77052;SHT30;65980;44.898;8.602;2023-04-01T16:55:55;20.76;30.07
77052;SHT30;65980;44.898;8.602;2023-04-01T16:59:14;20.48;28.64
77052;SHT30;65980;44.898;8.602;2023-04-01T17:02:28;20.20;28.57
77052;SHT30;65980;44.898;8.602;2023-04-01T17:12:40;24.65;24.22
77052;SHT30;65980;44.898;8.602;2023-04-01T17:37:01;19.20;31.44
77052;SHT30;65980;44.898;8.602;2023-04-01T17:40:16;18.99;31.21
77052;SHT30;65980;44.898;8.602;2023-04-01T17:50:17;18.68;31.31
77052;SHT30;65980;44.898;8.602;2023-04-01T18:24:06;17.28;31.14
77052;SHT30;65980;44.898;8.602;2023-04-01T18:27:29;17.42;30.83
77052;SHT30;65980;44.898;8.602;2023-04-01T18:30:40;17.13;31.66
77052;SHT30;65980;44.898;8.602;2023-04-01T18:40:43;16.47;31.91
77052;SHT30;65980;44.898;8.602;2023-04-01T18:47:43;16.65;31.90
77052;SHT30;65980;44.898;8.602;2023-04-01T18:57:55;16.55;33.65
77052;SHT30;65980;44.898;8.602;2023-04-01T19:01:48;16.32;34.42
77052;SHT30;65980;44.898;8.602;2023-04-01T19:08:41;16.20;36.17
77052;SHT30;65980;44.898;8.602;2023-04-01T19:46:36;15.38;41.75
77052;SHT30;65980;44.898;8.602;2023-04-01T19:53:11;14.97;42.68
77052;SHT30;65980;44.898;8.602;2023-04-01T19:56:19;14.69;43.83
77052;SHT30;65980;44.898;8.602;2023-04-01T20:07:21;14.97;44.86
77052;SHT30;65980;44.898;8.602;2023-04-01T20:17:41;14.84;46.54
77052;SHT30;65980;44.898;8.602;2023-04-01T20:27:54;14.48;47.29
77052;SHT30;65980;44.898;8.602;2023-04-01T20:34:20;14.28;47.18
77052;SHT30;65980;44.898;8.602;2023-04-01T20:37:46;14.14;48.12
77052;SHT30;65980;44.898;8.602;2023-04-01T20:41:11;14.28;47.93
77052;SHT30;65980;44.898;8.602;2023-04-01T20:44:22;14.25;48.25
77052;SHT30;65980;44.898;8.602;2023-04-01T20:50:58;14.24;48.50
77052;SHT30;65980;44.898;8.602;2023-04-01T20:54:22;14.09;48.65
77052;SHT30;65980;44.898;8.602;2023-04-01T21:00:40;13.77;49.93
77052;SHT30;65980;44.898;8.602;2023-04-01T21:10:11;13.66;48.51
77052;SHT30;65980;44.898;8.602;2023-04-01T21:16:41;13.70;47.86
77052;SHT30;65980;44.898;8.602;2023-04-01T21:20:04;13.38;48.84
77052;SHT30;65980;44.898;8.602;2023-04-01T21:27:02;13.11;49.90
77052;SHT30;65980;44.898;8.602;2023-04-01T21:33:26;13.41;49.42
77052;SHT30;65980;44.898;8.602;2023-04-01T21:40:12;13.72;49.04
77052;SHT30;65980;44.898;8.602;2023-04-01T21:43:28;13.90;48.42
77052;SHT30;65980;44.898;8.602;2023-04-01T22:07:12;13.58;50.60
77052;SHT30;65980;44.898;8.602;2023-04-01T22:14:05;13.62;51.92
77052;SHT30;65980;44.898;8.602;2023-04-01T22:20:35;13.58;51.58
77052;SHT30;65980;44.898;8.602;2023-04-01T22:23:45;13.51;52.03
77052;SHT30;65980;44.898;8.602;2023-04-01T22:30:31;13.15;53.54
77052;SHT30;65980;44.898;8.602;2023-04-01T22:44:06;13.22;54.19
77052;SHT30;65980;44.898;8.602;2023-04-01T22:47:30;13.06;54.73
77052;SHT30;65980;44.898;8.602;2023-04-01T22:50:53;12.99;55.18
77052;SHT30;65980;44.898;8.602;2023-04-01T22:54:04;13.04;54.84
77052;SHT30;65980;44.898;8.602;2023-04-01T23:00:34;12.99;55.97
77052;SHT30;65980;44.898;8.602;2023-04-01T23:03:43;13.04;55.53
77052;SHT30;65980;44.898;8.602;2023-04-01T23:06:53;12.92;56.19
77052;SHT30;65980;44.898;8.602;2023-04-01T23:09:59;13.00;56.73
77052;SHT30;65980;44.898;8.602;2023-04-01T23:13:09;12.92;56.82
77052;SHT30;65980;44.898;8.602;2023-04-01T23:16:16;12.83;57.57
77052;SHT30;65980;44.898;8.602;2023-04-01T23:29:04;12.72;58.81
77052;SHT30;65980;44.898;8.602;2023-04-01T23:32:17;12.48;58.91
77052;SHT30;65980;44.898;8.602;2023-04-01T23:35:22;12.45;59.03
77052;SHT30;65980;44.898;8.602;2023-04-01T23:38:27;12.42;59.81
77052;SHT30;65980;44.898;8.602;2023-04-01T23:41:40;12.34;60.15
77052;SHT30;65980;44.898;8.602;2023-04-01T23:44:49;12.39;60.20
77052;SHT30;65980;44.898;8.602;2023-04-01T23:47:54;12.31;60.71
77052;SHT30;65980;44.898;8.602;2023-04-01T23:50:58;12.34;60.75
77052;SHT30;65980;44.898;8.602;2023-04-01T23:57:13;12.41;61.19
